< < Back
Terminal Aerodrome Forecast


Current Version              Previous Versions:   1  2  3  4  5  6  7  8  9  

Terminal Aerodrome Forecast

393
FTUS42 KGSP 230500
TAFAND
TAF
KAND 230529Z 2306/2406 28005KT P6SM FEW250
     FM231200 36003KT P6SM SKC
     FM232300 02005KT P6SM SKC=

Latest METAR

276
SAUS70 KWBC 231400 RRC
MTRAND
METAR KAND 231356Z AUTO 30005KT 10SM CLR 19/08 A2991 RMK AO2 SLP121
T01940083


USA.gov is the U.S. government's official web portal to all federal, state and local government web resources and services.